Time;durP1;ratioP1;P1;durP2;ratioP2;P2;SDS_P1;SDS_P2;PMS_P1;PMS_P2;Temp;Humidity;BMP_temperature;BMP_pressure;BME280_temperature;BME280_humidity;BME280_pressure;Samples;Min_cycle;Max_cycle;Signal;HPM_P1;HPM_P2
2023/10/09 00:01:09;;;;;;;6.63;4.67;;;9.80;99.90;;;;;;5012981;28;21178;-62
2023/10/09 00:03:37;;;;;;;6.23;3.13;;;9.80;91.90;;;;;;5012932;28;20464;-60
2023/10/09 00:06:04;;;;;;;3.50;3.20;;;9.80;77.00;;;;;;5013311;28;20586;-60
2023/10/09 00:08:34;;;;;;;4.10;3.20;;;9.70;64.40;;;;;;5013311;28;20448;-59
2023/10/09 00:11:16;;;;;;;4.10;3.67;;;9.60;59.70;;;;;;5013158;28;20825;-60
2023/10/09 00:13:49;;;;;;;4.80;3.33;;;9.60;45.60;;;;;;5010066;28;20464;-61
2023/10/09 00:16:22;;;;;;;4.70;3.20;;;9.50;36.50;;;;;;5021499;28;20464;-60
2023/10/09 00:18:49;;;;;;;3.47;3.00;;;9.40;26.80;;;;;;5013453;28;20534;-61
2023/10/09 00:21:16;;;;;;;4.07;3.50;;;9.40;83.50;;;;;;5021144;28;20456;-62
2023/10/09 00:23:43;;;;;;;5.70;3.20;;;9.30;99.90;;;;;;5012597;28;20518;-60
2023/10/09 00:26:16;;;;;;;4.53;3.60;;;9.40;99.90;;;;;;5013024;28;20483;-61
2023/10/09 00:28:43;;;;;;;4.23;3.50;;;9.30;99.90;;;;;;5019265;28;20462;-60
2023/10/09 00:31:14;;;;;;;9.33;3.53;;;9.30;99.90;;;;;;5010125;28;20491;-59
2023/10/09 00:33:41;;;;;;;6.80;3.40;;;9.30;99.90;;;;;;5012298;28;20553;-60
2023/10/09 00:36:10;;;;;;;9.80;3.30;;;9.30;99.90;;;;;;5019575;28;20472;-61
2023/10/09 00:38:39;;;;;;;7.90;3.80;;;9.20;99.90;;;;;;5018336;28;20983;-61
2023/10/09 00:41:11;;;;;;;7.80;3.97;;;9.20;99.90;;;;;;5020884;28;20971;-60
2023/10/09 00:43:42;;;;;;;11.30;3.40;;;9.20;99.90;;;;;;5017771;28;20513;-61
2023/10/09 00:46:16;;;;;;;7.77;3.87;;;9.20;99.90;;;;;;5018046;28;20506;-61
2023/10/09 00:48:47;;;;;;;6.23;3.73;;;9.10;99.90;;;;;;5019724;28;20471;-61
2023/10/09 00:51:18;;;;;;;8.10;3.13;;;9.10;99.90;;;;;;5023164;28;20544;-62
2023/10/09 00:53:48;;;;;;;3.73;3.40;;;9.10;99.90;;;;;;5017126;28;20506;-61
2023/10/09 00:56:21;;;;;;;5.73;3.40;;;9.10;99.90;;;;;;5012870;28;20499;-62
2023/10/09 00:58:54;;;;;;;8.43;3.80;;;9.10;99.90;;;;;;5020740;28;20458;-62
2023/10/09 01:01:26;;;;;;;5.00;2.90;;;9.10;99.90;;;;;;5013437;28;20539;-61
2023/10/09 01:03:53;;;;;;;6.33;3.00;;;9.10;99.90;;;;;;5006537;28;20552;-60
2023/10/09 01:06:21;;;;;;;6.23;3.60;;;9.10;99.90;;;;;;5016500;28;20479;-62
2023/10/09 01:08:56;;;;;;;4.83;3.00;;;9.10;99.90;;;;;;5015584;28;20471;-61
2023/10/09 01:11:29;;;;;;;5.70;3.30;;;9.10;99.90;;;;;;5004534;28;20802;-59
2023/10/09 01:14:11;;;;;;;6.13;3.10;;;9.20;99.90;;;;;;5008713;28;20459;-60
2023/10/09 01:16:41;;;;;;;4.37;3.07;;;9.10;99.90;;;;;;5009962;28;20507;-61
2023/10/09 01:19:13;;;;;;;6.53;3.80;;;9.10;99.90;;;;;;5006104;28;20490;-61
2023/10/09 01:21:39;;;;;;;4.53;3.20;;;9.10;99.90;;;;;;5010470;28;20464;-62
2023/10/09 01:24:08;;;;;;;6.03;3.40;;;9.10;99.90;;;;;;5013098;28;20465;-62
2023/10/09 01:26:44;;;;;;;12.70;3.07;;;9.10;99.90;;;;;;5006547;28;21008;-54
2023/10/09 01:29:14;;;;;;;4.93;3.40;;;9.10;99.90;;;;;;5010513;28;20470;-54
2023/10/09 01:31:44;;;;;;;6.80;3.20;;;9.10;99.90;;;;;;5018003;28;20552;-55
2023/10/09 01:34:12;;;;;;;2.97;2.60;;;9.10;99.90;;;;;;5014208;28;20522;-54
2023/10/09 01:36:39;;;;;;;6.13;3.00;;;9.10;99.90;;;;;;5009710;28;20479;-54
2023/10/09 01:39:21;;;;;;;3.30;3.10;;;9.10;99.90;;;;;;5009035;28;20466;-54
2023/10/09 01:41:48;;;;;;;6.30;3.03;;;9.10;99.90;;;;;;5011344;28;20546;-55
2023/10/09 01:44:16;;;;;;;5.10;3.70;;;9.00;99.90;;;;;;5015154;28;20467;-55
2023/10/09 01:46:42;;;;;;;7.83;4.17;;;9.00;99.90;;;;;;5010974;28;20541;-55
2023/10/09 01:49:17;;;;;;;3.20;2.90;;;9.10;99.90;;;;;;5018902;28;20464;-55
2023/10/09 01:51:44;;;;;;;8.03;3.30;;;9.10;99.90;;;;;;5010604;28;20546;-55
2023/10/09 01:54:27;;;;;;;5.03;2.97;;;9.10;99.90;;;;;;5011699;28;21213;-55
2023/10/09 01:56:56;;;;;;;2.90;2.60;;;9.00;99.90;;;;;;5014944;28;20479;-54
2023/10/09 01:59:22;;;;;;;5.10;3.10;;;9.10;99.90;;;;;;5011636;28;20515;-55
2023/10/09 02:01:49;;;;;;;3.53;2.50;;;9.10;99.90;;;;;;5009327;28;20514;-54
2023/10/09 02:04:19;;;;;;;6.70;2.97;;;9.10;99.90;;;;;;5014076;28;20474;-54
2023/10/09 02:06:50;;;;;;;6.73;3.00;;;9.00;99.90;;;;;;5010765;28;20566;-54
2023/10/09 02:09:22;;;;;;;3.33;2.33;;;9.10;99.90;;;;;;5008169;28;20546;-54
2023/10/09 02:11:51;;;;;;;3.13;2.63;;;9.10;99.90;;;;;;5011450;28;20459;-55
2023/10/09 02:14:19;;;;;;;5.57;3.50;;;9.10;99.90;;;;;;5011943;28;20495;-54
2023/10/09 02:17:02;;;;;;;3.63;3.33;;;9.10;99.90;;;;;;5011477;28;20555;-54
2023/10/09 02:19:33;;;;;;;9.77;3.63;;;9.10;99.90;;;;;;5004058;28;20447;-54
2023/10/09 02:22:01;;;;;;;6.30;3.00;;;9.10;99.90;;;;;;5011636;28;20895;-55
2023/10/09 02:27:15;;;;;;;2.90;2.60;;;9.10;99.90;;;;;;5009461;28;20578;-54
2023/10/09 02:29:42;;;;;;;3.17;2.87;;;9.10;99.90;;;;;;5017461;28;20972;-54
2023/10/09 02:32:18;;;;;;;6.97;3.20;;;9.10;99.90;;;;;;5012239;28;20463;-54
2023/10/09 02:34:53;;;;;;;3.93;3.23;;;9.10;99.90;;;;;;5010826;28;20463;-54
2023/10/09 02:37:23;;;;;;;3.67;2.83;;;9.10;99.90;;;;;;5015256;28;20479;-54
2023/10/09 02:39:52;;;;;;;3.80;3.30;;;9.10;99.90;;;;;;5014951;28;20487;-55
2023/10/09 02:42:25;;;;;;;3.70;3.10;;;9.10;99.90;;;;;;5011413;28;20463;-54
2023/10/09 02:44:52;;;;;;;5.10;3.60;;;9.10;99.90;;;;;;5020523;28;20819;-54
2023/10/09 02:47:24;;;;;;;5.83;3.23;;;9.10;99.90;;;;;;5015456;28;21026;-54
2023/10/09 02:49:51;;;;;;;6.47;2.90;;;9.20;99.90;;;;;;5023273;28;20451;-55
2023/10/09 02:52:19;;;;;;;3.73;3.40;;;9.20;99.90;;;;;;5025581;28;20443;-54
2023/10/09 02:54:47;;;;;;;4.57;3.20;;;9.20;99.90;;;;;;5019551;28;20459;-54
2023/10/09 02:57:21;;;;;;;5.47;3.40;;;9.20;99.90;;;;;;5014752;28;20541;-55
2023/10/09 02:59:51;;;;;;;8.10;3.30;;;9.20;99.90;;;;;;5012286;28;20462;-54
2023/10/09 03:02:18;;;;;;;3.60;3.30;;;9.20;99.90;;;;;;5023059;28;20482;-54
2023/10/09 03:04:44;;;;;;;8.50;3.70;;;9.10;99.90;;;;;;5026778;28;20493;-54
2023/10/09 03:07:13;;;;;;;6.70;3.30;;;9.10;99.90;;;;;;5018035;28;20490;-55
2023/10/09 03:09:40;;;;;;;8.23;3.40;;;9.10;99.90;;;;;;5020993;28;20443;-54
2023/10/09 03:12:09;;;;;;;4.60;3.07;;;9.10;99.90;;;;;;5013284;28;20463;-54
2023/10/09 03:14:39;;;;;;;3.70;3.20;;;9.10;99.90;;;;;;5013794;28;20547;-55
2023/10/09 03:17:07;;;;;;;15.10;3.60;;;9.10;99.90;;;;;;5015760;28;20486;-54
2023/10/09 03:19:37;;;;;;;6.07;3.13;;;9.10;99.90;;;;;;5016378;28;20463;-54
2023/10/09 03:22:04;;;;;;;9.70;3.10;;;9.00;99.90;;;;;;5008668;28;20463;-55
2023/10/09 03:24:31;;;;;;;3.73;2.90;;;9.10;99.90;;;;;;5022569;28;20458;-54
2023/10/09 03:26:58;;;;;;;6.93;4.47;;;9.10;99.90;;;;;;5014286;28;20868;-54
2023/10/09 03:29:27;;;;;;;4.97;3.33;;;9.00;99.90;;;;;;5013391;28;20459;-54
2023/10/09 03:31:56;;;;;;;5.77;3.50;;;9.10;99.90;;;;;;5014070;28;20460;-53
2023/10/09 03:34:23;;;;;;;14.60;4.00;;;9.00;99.90;;;;;;5014070;28;20462;-54
2023/10/09 03:36:59;;;;;;;4.50;3.70;;;9.10;99.90;;;;;;5012511;28;20483;-55
2023/10/09 03:39:34;;;;;;;7.10;3.43;;;9.10;99.90;;;;;;5022520;28;20516;-55
2023/10/09 03:42:05;;;;;;;4.93;3.50;;;9.10;99.90;;;;;;5014209;28;20833;-55
2023/10/09 03:44:34;;;;;;;4.57;3.70;;;9.10;99.90;;;;;;5005201;28;20459;-54
2023/10/09 03:47:02;;;;;;;9.03;3.33;;;9.10;99.90;;;;;;5024322;28;20482;-54
2023/10/09 03:49:29;;;;;;;4.10;3.27;;;9.10;99.90;;;;;;5013279;28;20447;-54
2023/10/09 03:51:56;;;;;;;4.80;2.80;;;9.10;99.90;;;;;;5021029;28;20491;-54
2023/10/09 03:54:24;;;;;;;8.80;3.97;;;9.10;99.90;;;;;;5011516;28;20450;-54
2023/10/09 03:56:50;;;;;;;6.90;4.07;;;9.10;99.90;;;;;;5013778;28;21000;-54
2023/10/09 03:59:19;;;;;;;6.93;3.40;;;9.10;99.90;;;;;;5020742;28;20486;-55
2023/10/09 04:01:48;;;;;;;4.93;3.17;;;9.20;99.90;;;;;;5008411;28;20918;-54
2023/10/09 04:04:16;;;;;;;7.50;3.43;;;9.10;99.90;;;;;;5021825;28;20842;-54
2023/10/09 04:06:43;;;;;;;3.93;3.23;;;9.10;99.90;;;;;;5012570;28;20480;-54
2023/10/09 04:09:27;;;;;;;4.67;3.63;;;9.10;99.90;;;;;;5013428;28;20494;-55
2023/10/09 04:12:13;;;;;;;4.23;3.23;;;9.10;99.90;;;;;;5011839;28;20960;-55
2023/10/09 04:14:49;;;;;;;6.50;4.10;;;9.10;99.90;;;;;;5006465;28;20543;-54
2023/10/09 04:22:39;;;;;;;4.43;4.03;;;9.00;99.90;;;;;;5011076;28;20456;-54
2023/10/09 04:25:07;;;;;;;5.60;3.77;;;9.00;99.90;;;;;;5014688;28;20459;-55
2023/10/09 04:27:37;;;;;;;5.77;3.80;;;9.10;99.90;;;;;;5010069;28;20574;-55
2023/10/09 04:30:07;;;;;;;6.23;4.20;;;9.10;99.90;;;;;;5007495;28;20464;-55
2023/10/09 04:32:34;;;;;;;8.13;4.10;;;9.10;99.90;;;;;;5012726;28;21107;-54
2023/10/09 04:37:44;;;;;;;9.50;4.60;;;9.10;99.90;;;;;;5008826;28;20475;-55
2023/10/09 04:40:12;;;;;;;11.70;3.93;;;9.10;99.90;;;;;;5009729;28;20470;-55
2023/10/09 04:42:38;;;;;;;6.30;4.17;;;9.10;99.90;;;;;;5007215;28;20840;-54
2023/10/09 04:45:59;;;;;;;4.13;3.73;;;9.20;99.90;;;;;;5009481;28;20456;-54
2023/10/09 04:48:32;;;;;;;4.67;4.17;;;9.20;99.90;;;;;;5009931;28;20474;-55
2023/10/09 04:53:50;;;;;;;6.57;4.03;;;9.10;99.90;;;;;;5006454;28;20443;-54
2023/10/09 04:56:16;;;;;;;6.83;4.17;;;9.10;99.90;;;;;;5009413;28;20997;-54
2023/10/09 04:58:44;;;;;;;6.53;4.07;;;9.10;99.90;;;;;;5012416;28;20886;-55
2023/10/09 05:01:35;;;;;;;8.60;5.00;;;9.10;99.90;;;;;;5007947;28;20459;-54
2023/10/09 05:04:04;;;;;;;6.60;3.97;;;9.10;99.90;;;;;;5011500;28;20460;-54
2023/10/09 05:06:54;;;;;;;5.50;3.67;;;9.10;99.90;;;;;;5010543;28;20507;-54
2023/10/09 05:09:21;;;;;;;6.30;4.10;;;9.10;99.90;;;;;;5011294;28;20846;-54
2023/10/09 05:12:15;;;;;;;4.33;3.70;;;9.10;99.90;;;;;;5010297;28;20448;-55
2023/10/09 05:14:45;;;;;;;6.30;3.70;;;9.10;99.90;;;;;;5008120;28;20470;-54
2023/10/09 05:17:16;;;;;;;6.63;3.30;;;9.10;99.90;;;;;;5011066;28;20828;-55
2023/10/09 05:19:54;;;;;;;6.67;3.70;;;9.10;99.90;;;;;;5012539;28;20509;-55
2023/10/09 05:22:37;;;;;;;5.57;3.30;;;9.10;99.90;;;;;;5007588;28;20451;-54
2023/10/09 05:25:15;;;;;;;6.00;3.77;;;9.10;99.90;;;;;;5011969;28;20475;-55
2023/10/09 05:27:51;;;;;;;5.10;3.50;;;9.10;99.90;;;;;;5005717;28;20480;-54
2023/10/09 05:30:27;;;;;;;3.73;3.43;;;9.10;99.90;;;;;;5010093;28;20460;-55
2023/10/09 05:32:58;;;;;;;15.73;3.70;;;9.10;99.90;;;;;;5009764;28;20475;-54
2023/10/09 05:35:39;;;;;;;6.80;4.00;;;9.10;99.90;;;;;;5011343;28;20460;-54
2023/10/09 05:38:23;;;;;;;5.87;3.73;;;9.10;99.90;;;;;;5007379;28;20522;-55
2023/10/09 05:40:53;;;;;;;12.03;3.90;;;9.10;99.90;;;;;;5009020;28;20467;-55
2023/10/09 05:46:15;;;;;;;4.50;3.00;;;9.10;99.90;;;;;;5009332;28;20455;-54
2023/10/09 05:48:54;;;;;;;4.97;3.43;;;9.20;99.90;;;;;;5012191;28;20487;-55
2023/10/09 05:54:23;;;;;;;7.10;3.53;;;9.10;99.90;;;;;;5011774;28;20428;-55
2023/10/09 06:05:40;;;;;;;7.67;4.63;;;9.10;99.90;;;;;;5003682;28;20546;-54
2023/10/09 06:08:06;;;;;;;3.53;3.10;;;9.10;99.90;;;;;;5005980;28;20475;-54
2023/10/09 06:10:40;;;;;;;4.27;3.37;;;9.20;99.90;;;;;;5003488;28;20439;-55
2023/10/09 06:16:09;;;;;;;4.33;3.30;;;9.10;99.90;;;;;;5010053;28;20475;-54
2023/10/09 06:18:35;;;;;;;5.20;4.27;;;9.20;99.90;;;;;;5015177;28;20448;-54
2023/10/09 06:21:09;;;;;;;7.07;4.37;;;9.20;99.90;;;;;;5010285;28;20454;-54
2023/10/09 06:24:08;;;;;;;4.73;3.87;;;9.20;99.90;;;;;;5002340;28;21305;-54
2023/10/09 06:26:36;;;;;;;6.87;4.57;;;9.20;99.90;;;;;;5009059;28;20489;-54
2023/10/09 06:29:15;;;;;;;5.40;3.93;;;9.20;99.90;;;;;;5011077;28;20488;-54
2023/10/09 06:34:32;;;;;;;9.63;4.67;;;9.30;99.90;;;;;;4966523;28;20205;-55
2023/10/09 06:37:05;;;;;;;4.83;4.33;;;9.30;99.90;;;;;;5010212;28;20973;-54
2023/10/09 06:42:33;;;;;;;5.10;3.97;;;9.30;99.90;;;;;;5014044;28;20458;-55
2023/10/09 06:45:05;;;;;;;7.23;4.37;;;9.40;99.90;;;;;;5011632;28;20452;-55
2023/10/09 06:47:41;;;;;;;8.03;3.90;;;9.50;99.90;;;;;;5009147;28;20479;-54
2023/10/09 06:50:25;;;;;;;7.43;4.47;;;9.40;99.90;;;;;;5007167;28;20836;-54
2023/10/09 06:52:57;;;;;;;4.30;3.87;;;9.50;99.90;;;;;;5007777;28;20462;-54
2023/10/09 06:55:33;;;;;;;4.93;4.40;;;9.50;99.90;;;;;;4997203;28;20996;-54
2023/10/09 06:58:01;;;;;;;8.67;4.50;;;9.50;99.90;;;;;;5000060;28;20450;-55
2023/10/09 07:03:12;;;;;;;6.43;4.40;;;9.60;99.90;;;;;;5008354;28;20833;-54
2023/10/09 07:05:48;;;;;;;6.83;5.10;;;9.60;99.90;;;;;;5008603;28;20483;-54
2023/10/09 07:11:57;;;;;;;9.67;4.63;;;9.60;99.90;;;;;;5104001;27;20541;-55
2023/10/09 07:14:32;;;;;;;8.90;4.63;;;9.70;99.90;;;;;;5103175;28;20471;-54
2023/10/09 07:16:58;;;;;;;8.70;5.23;;;9.70;99.90;;;;;;5089118;28;20475;-55
2023/10/09 07:19:35;;;;;;;4.40;4.10;;;9.70;99.90;;;;;;5084980;28;20449;-54
2023/10/09 07:22:02;;;;;;;5.73;4.33;;;9.70;99.90;;;;;;5082779;28;20967;-54
2023/10/09 07:24:37;;;;;;;10.20;5.33;;;9.70;99.90;;;;;;5081335;28;20993;-55
2023/10/09 07:27:14;;;;;;;5.70;4.33;;;9.80;99.90;;;;;;5086308;22;20508;-60
2023/10/09 07:29:48;;;;;;;5.93;4.60;;;9.80;99.90;;;;;;5054465;28;20485;-59
2023/10/09 07:32:20;;;;;;;6.43;4.73;;;9.80;99.90;;;;;;5065231;28;20456;-60
2023/10/09 07:34:58;;;;;;;4.90;4.40;;;9.80;99.90;;;;;;5057060;28;20442;-61
2023/10/09 07:37:30;;;;;;;10.20;5.43;;;9.70;99.90;;;;;;5064551;28;20475;-60
2023/10/09 07:39:58;;;;;;;5.07;4.20;;;9.80;99.90;;;;;;5063912;28;20503;-61
2023/10/09 07:42:43;;;;;;;6.93;6.03;;;9.80;99.90;;;;;;5062511;28;20463;-61
2023/10/09 07:45:54;;;;;;;10.23;5.20;;;9.70;99.90;;;;;;5060041;28;21022;-60
2023/10/09 07:48:04;;;;;;;17.43;9.90;;;9.80;99.90;;;;;;5063739;28;20473;-59
2023/10/09 07:50:40;;;;;;;11.90;10.17;;;9.80;99.90;;;;;;5065378;28;20493;-60
2023/10/09 07:53:17;;;;;;;14.80;10.10;;;9.80;99.90;;;;;;5068645;28;20491;-61
2023/10/09 07:55:54;;;;;;;12.10;8.40;;;9.80;99.90;;;;;;5063633;28;20452;-59
2023/10/09 07:58:24;;;;;;;9.23;6.40;;;9.90;99.90;;;;;;5066626;28;20496;-61
2023/10/09 08:01:07;;;;;;;5.27;4.77;;;9.90;99.90;;;;;;5072259;28;20437;-60
2023/10/09 08:03:35;;;;;;;4.67;3.97;;;9.80;99.90;;;;;;5065635;28;20461;-59
2023/10/09 08:06:37;;;;;;;4.90;4.50;;;9.80;99.90;;;;;;5066156;28;20980;-60
2023/10/09 08:17:13;;;;;;;6.77;4.87;;;9.90;99.90;;;;;;5063065;28;20467;-59
2023/10/09 08:19:53;;;;;;;10.17;6.13;;;9.90;99.90;;;;;;5059676;28;20449;-61
2023/10/09 08:22:42;;;;;;;8.40;6.53;;;9.90;99.90;;;;;;5055442;28;20441;-56
2023/10/09 08:25:25;;;;;;;6.10;5.50;;;9.90;99.90;;;;;;5052927;28;20507;-56
2023/10/09 08:27:55;;;;;;;10.80;7.03;;;10.00;99.90;;;;;;5048089;28;20481;-56
2023/10/09 08:33:40;;;;;;;5.20;4.70;;;10.00;99.90;;;;;;5053803;28;20464;-57
2023/10/09 08:36:01;;;;;;;6.63;4.83;;;9.90;99.90;;;;;;5048424;28;20920;-57
2023/10/09 08:38:33;;;;;;;9.17;5.30;;;9.90;99.90;;;;;;5054341;28;20448;-58
2023/10/09 08:41:15;;;;;;;7.80;4.67;;;10.00;99.90;;;;;;5053479;28;20488;-58
2023/10/09 08:43:48;;;;;;;6.67;5.10;;;9.90;99.90;;;;;;5054042;28;20442;-58
2023/10/09 08:46:21;;;;;;;6.03;4.53;;;10.00;99.90;;;;;;5048743;28;20564;-57
2023/10/09 08:48:49;;;;;;;11.10;4.73;;;10.00;99.90;;;;;;5052754;28;20457;-57
2023/10/09 08:51:18;;;;;;;6.57;4.80;;;10.00;99.90;;;;;;5053456;28;20496;-59
2023/10/09 08:53:45;;;;;;;4.90;4.50;;;10.10;99.90;;;;;;5053866;28;20454;-58
2023/10/09 08:56:14;;;;;;;5.80;4.60;;;10.10;99.90;;;;;;5051130;28;20869;-58
2023/10/09 08:58:41;;;;;;;5.40;4.90;;;10.10;99.90;;;;;;5054002;28;20450;-58
2023/10/09 09:01:08;;;;;;;5.77;4.70;;;10.20;99.90;;;;;;5053763;28;20442;-58
2023/10/09 09:03:44;;;;;;;6.07;5.40;;;10.40;99.90;;;;;;5052201;28;20458;-58
2023/10/09 09:06:11;;;;;;;12.60;6.10;;;10.40;99.90;;;;;;5053698;28;21010;-57
2023/10/09 09:08:38;;;;;;;11.03;5.47;;;10.40;99.90;;;;;;5048035;28;20468;-58
2023/10/09 09:11:12;;;;;;;14.47;4.97;;;10.40;99.90;;;;;;5049514;28;20543;-58
2023/10/09 09:13:41;;;;;;;7.47;6.20;;;10.50;99.90;;;;;;5042563;28;20545;-58
2023/10/09 09:16:16;;;;;;;8.40;7.30;;;10.50;99.90;;;;;;5056805;28;20479;-57
2023/10/09 09:18:56;;;;;;;6.93;5.40;;;10.50;99.90;;;;;;5044606;28;20990;-58
2023/10/09 09:21:23;;;;;;;8.83;6.70;;;10.50;99.90;;;;;;5049288;28;20457;-58
2023/10/09 09:24:00;;;;;;;9.30;7.20;;;10.40;99.90;;;;;;5053216;28;20465;-58
2023/10/09 09:26:38;;;;;;;6.20;5.00;;;10.40;99.90;;;;;;5043043;28;20539;-57
2023/10/09 09:29:06;;;;;;;21.07;7.30;;;10.40;99.90;;;;;;5041928;28;20464;-57
2023/10/09 09:31:37;;;;;;;7.47;5.90;;;10.50;99.90;;;;;;5045778;28;20520;-57
2023/10/09 09:34:13;;;;;;;12.40;5.80;;;10.50;99.90;;;;;;5047947;28;20461;-58
2023/10/09 09:36:54;;;;;;;7.30;5.53;;;10.50;99.90;;;;;;5049084;28;20488;-57
2023/10/09 09:39:28;;;;;;;6.43;5.37;;;10.50;99.90;;;;;;5040259;28;20459;-57
2023/10/09 09:42:03;;;;;;;7.20;6.30;;;10.50;99.90;;;;;;5053704;28;20452;-64
2023/10/09 09:44:33;;;;;;;6.07;5.40;;;10.60;99.90;;;;;;5048961;28;20955;-58
2023/10/09 09:47:01;;;;;;;8.90;6.03;;;10.60;99.90;;;;;;5052845;28;20497;-57
2023/10/09 09:49:32;;;;;;;10.10;5.67;;;10.60;99.90;;;;;;5042660;28;20460;-57
2023/10/09 09:52:02;;;;;;;9.80;6.80;;;10.60;99.90;;;;;;5049549;28;21015;-57
2023/10/09 09:54:33;;;;;;;11.30;7.43;;;10.60;99.90;;;;;;5048646;28;20451;-58
2023/10/09 09:57:08;;;;;;;9.00;7.63;;;10.60;99.90;;;;;;5049525;28;20481;-57
2023/10/09 09:59:49;;;;;;;8.10;7.20;;;10.60;99.90;;;;;;5050716;28;20988;-58
2023/10/09 10:02:22;;;;;;;9.10;7.50;;;10.60;99.90;;;;;;5047634;28;20462;-57
2023/10/09 10:04:56;;;;;;;13.13;7.67;;;10.60;99.90;;;;;;5047453;28;20924;-57
2023/10/09 10:07:25;;;;;;;8.23;7.27;;;10.70;99.90;;;;;;5048200;28;20477;-56
2023/10/09 10:09:57;;;;;;;9.87;8.07;;;10.70;99.90;;;;;;5048916;28;20484;-57
2023/10/09 10:13:03;;;;;;;10.00;7.70;;;10.70;99.90;;;;;;5048034;28;20493;-59
2023/10/09 10:16:02;;;;;;;8.80;7.30;;;10.80;99.90;;;;;;5049908;28;20532;-57
2023/10/09 10:18:33;;;;;;;10.43;7.53;;;10.80;99.90;;;;;;5049285;28;20809;-57
2023/10/09 10:21:16;;;;;;;9.17;8.27;;;10.90;99.90;;;;;;5049172;28;20458;-57
2023/10/09 10:23:47;;;;;;;7.70;6.70;;;10.90;99.90;;;;;;5049833;28;20461;-58
2023/10/09 10:26:26;;;;;;;7.70;6.90;;;11.00;99.90;;;;;;5050344;28;20505;-58
2023/10/09 10:29:22;;;;;;;8.40;7.03;;;11.10;99.90;;;;;;5049322;28;20488;-59
2023/10/09 10:32:00;;;;;;;7.00;6.30;;;11.10;99.90;;;;;;5043982;28;21018;-58
2023/10/09 10:34:27;;;;;;;7.40;6.70;;;11.20;99.90;;;;;;5047619;28;20461;-57
2023/10/09 10:36:58;;;;;;;8.53;6.70;;;11.20;99.90;;;;;;5050619;28;20526;-57
2023/10/09 10:39:42;;;;;;;8.60;7.50;;;11.30;99.90;;;;;;5045634;28;20461;-57
2023/10/09 10:42:14;;;;;;;8.60;7.60;;;11.30;99.90;;;;;;5049286;28;20531;-57
2023/10/09 10:44:44;;;;;;;7.30;6.47;;;11.30;99.90;;;;;;5045789;28;20465;-58
2023/10/09 10:47:24;;;;;;;11.03;6.90;;;11.30;99.90;;;;;;5049197;28;20910;-57
2023/10/09 10:49:57;;;;;;;7.30;6.60;;;11.20;24.90;;;;;;5046675;28;20454;-57
2023/10/09 10:52:41;;;;;;;9.60;6.27;;;11.10;28.50;;;;;;5046539;28;20526;-57
2023/10/09 10:55:31;;;;;;;7.90;6.70;;;11.10;20.90;;;;;;5045818;28;20959;-58
2023/10/09 10:58:00;;;;;;;8.77;7.80;;;11.20;99.90;;;;;;5049826;28;20493;-57
2023/10/09 11:03:23;;;;;;;7.17;6.47;;;11.40;99.90;;;;;;5047079;28;20453;-57
2023/10/09 11:05:51;;;;;;;7.93;6.10;;;11.30;22.80;;;;;;5048414;28;20457;-59
2023/10/09 11:08:23;;;;;;;6.83;6.23;;;11.30;21.60;;;;;;5040176;28;20517;-57
2023/10/09 11:10:53;;;;;;;6.60;5.93;;;11.30;32.80;;;;;;5042518;28;21001;-57
2023/10/09 11:13:33;;;;;;;6.63;5.90;;;11.30;32.30;;;;;;5046407;28;21020;-57
2023/10/09 11:18:45;;;;;;;9.20;6.53;;;11.30;40.60;;;;;;5044211;28;20473;-58
2023/10/09 11:26:54;;;;;;;8.30;5.23;;;11.70;42.40;;;;;;5042506;28;20484;-57
2023/10/09 11:29:28;;;;;;;6.50;5.27;;;11.70;53.70;;;;;;5047123;28;20453;-57
2023/10/09 11:31:59;;;;;;;6.20;5.13;;;11.80;62.30;;;;;;5051070;28;20481;-57
2023/10/09 11:34:32;;;;;;;6.10;5.30;;;11.90;54.10;;;;;;5046538;28;20454;-57
2023/10/09 11:37:00;;;;;;;11.20;6.87;;;12.00;59.50;;;;;;5050009;28;20986;-58
2023/10/09 11:39:34;;;;;;;8.67;5.20;;;12.00;57.90;;;;;;5044497;28;20973;-57
2023/10/09 11:42:07;;;;;;;6.10;4.90;;;11.90;64.80;;;;;;5047856;28;20461;-58
2023/10/09 11:44:40;;;;;;;10.33;4.10;;;11.80;71.00;;;;;;5048775;28;20468;-57
2023/10/09 11:47:32;;;;;;;4.80;4.07;;;11.70;77.50;;;;;;5050320;28;20478;-57
2023/10/09 11:50:14;;;;;;;8.87;5.47;;;11.70;75.40;;;;;;5048330;28;20461;-57
2023/10/09 11:55:42;;;;;;;8.03;4.33;;;11.80;50.40;;;;;;5050372;28;20544;-58
2023/10/09 11:58:09;;;;;;;5.57;4.47;;;11.90;52.40;;;;;;5049623;28;20557;-58
2023/10/09 12:00:45;;;;;;;3.80;3.40;;;11.90;57.50;;;;;;5054868;28;20458;-57
2023/10/09 12:03:13;;;;;;;4.43;3.90;;;11.90;58.00;;;;;;5053644;28;20589;-57
2023/10/09 12:05:42;;;;;;;5.37;4.00;;;11.90;63.50;;;;;;5050745;28;20951;-58
2023/10/09 12:08:09;;;;;;;4.57;4.17;;;12.20;62.90;;;;;;5051375;28;20561;-57
2023/10/09 12:10:38;;;;;;;7.70;4.13;;;12.30;66.00;;;;;;5053485;28;20485;-57
2023/10/09 12:13:07;;;;;;;7.37;4.07;;;12.20;82.10;;;;;;5053358;28;20472;-57
2023/10/09 12:15:37;;;;;;;4.33;3.70;;;12.20;99.90;;;;;;5052246;28;20473;-57
2023/10/09 12:18:06;;;;;;;4.97;3.40;;;12.30;97.90;;;;;;5052648;28;20568;-57
2023/10/09 12:20:35;;;;;;;4.03;3.60;;;12.10;99.90;;;;;;5052634;28;20458;-58
2023/10/09 12:23:04;;;;;;;13.10;3.93;;;12.10;98.90;;;;;;5052395;28;20541;-58
2023/10/09 12:25:32;;;;;;;6.53;3.50;;;12.10;96.10;;;;;;5054129;28;20452;-57
2023/10/09 12:28:01;;;;;;;10.47;4.70;;;12.00;99.90;;;;;;5050807;28;21030;-57
2023/10/09 12:30:29;;;;;;;6.60;4.10;;;11.90;99.40;;;;;;5052315;28;20539;-57
2023/10/09 12:32:57;;;;;;;3.60;3.30;;;12.00;83.70;;;;;;5049546;28;20501;-57
2023/10/09 12:35:24;;;;;;;5.83;3.90;;;11.90;99.90;;;;;;5052764;28;20470;-57
2023/10/09 12:37:52;;;;;;;8.63;4.50;;;12.00;97.70;;;;;;5048134;28;20552;-57
2023/10/09 12:40:24;;;;;;;5.40;4.90;;;12.00;92.80;;;;;;5050283;28;20457;-59
2023/10/09 12:42:52;;;;;;;5.30;4.80;;;12.00;90.10;;;;;;5050416;28;20462;-58
2023/10/09 12:45:25;;;;;;;9.60;5.63;;;12.00;82.30;;;;;;5053073;28;20496;-55
2023/10/09 12:47:58;;;;;;;6.00;4.30;;;12.00;71.50;;;;;;5052873;28;20537;-58
2023/10/09 12:50:28;;;;;;;6.37;3.80;;;12.00;68.60;;;;;;5050241;28;20465;-58
2023/10/09 12:52:56;;;;;;;7.63;4.93;;;12.10;65.60;;;;;;5051549;28;20465;-57
2023/10/09 12:55:31;;;;;;;6.40;4.27;;;12.10;56.40;;;;;;5053181;28;20539;-57
2023/10/09 12:58:00;;;;;;;4.00;3.70;;;12.10;74.90;;;;;;5052912;28;20481;-57
2023/10/09 13:00:27;;;;;;;6.70;4.30;;;12.00;79.90;;;;;;5050776;28;20899;-57
2023/10/09 13:02:55;;;;;;;5.20;4.40;;;12.00;83.60;;;;;;5053799;28;20449;-58
2023/10/09 13:05:26;;;;;;;7.40;4.57;;;11.90;92.00;;;;;;5052458;28;20465;-58
2023/10/09 13:07:52;;;;;;;6.30;4.57;;;12.00;88.90;;;;;;5050006;28;20479;-58
2023/10/09 13:10:19;;;;;;;6.73;3.87;;;12.00;92.20;;;;;;5051595;28;20504;-58
2023/10/09 13:12:46;;;;;;;4.87;3.40;;;12.10;87.30;;;;;;5043643;28;20449;-57
2023/10/09 13:15:13;;;;;;;5.60;4.10;;;12.10;75.30;;;;;;5052782;28;20514;-57
2023/10/09 13:17:41;;;;;;;4.87;4.37;;;12.10;82.90;;;;;;5051759;28;20506;-57
2023/10/09 13:20:13;;;;;;;4.70;4.20;;;12.10;92.30;;;;;;5052683;28;20865;-57
2023/10/09 13:22:40;;;;;;;5.03;4.37;;;12.10;90.20;;;;;;5052075;28;20960;-57
2023/10/09 13:25:14;;;;;;;6.37;4.40;;;12.10;86.30;;;;;;5050579;28;20549;-58
2023/10/09 13:27:41;;;;;;;12.50;4.53;;;12.10;93.10;;;;;;5048654;28;20481;-57
2023/10/09 13:30:20;;;;;;;6.40;5.40;;;12.10;90.60;;;;;;5046624;28;20454;-58
2023/10/09 13:32:49;;;;;;;7.63;4.73;;;12.10;95.10;;;;;;5044278;28;20477;-57
2023/10/09 13:35:18;;;;;;;6.23;5.50;;;12.10;99.90;;;;;;5048461;28;20454;-57
2023/10/09 13:37:53;;;;;;;6.93;4.90;;;12.00;96.90;;;;;;5044164;28;20565;-57
2023/10/09 13:40:26;;;;;;;7.00;5.00;;;12.00;88.20;;;;;;5051712;28;20967;-58
2023/10/09 13:42:54;;;;;;;6.50;4.77;;;12.10;92.00;;;;;;5050662;28;20449;-59
2023/10/09 13:45:26;;;;;;;6.30;4.80;;;12.00;90.40;;;;;;5051401;28;20468;-58
2023/10/09 13:47:54;;;;;;;6.43;5.13;;;12.10;86.30;;;;;;5050681;28;20505;-57
2023/10/09 13:50:28;;;;;;;6.77;4.23;;;12.10;69.70;;;;;;5047815;28;20485;-57
2023/10/09 13:52:56;;;;;;;5.00;4.50;;;12.20;60.00;;;;;;5053162;28;20488;-56
2023/10/09 13:55:23;;;;;;;8.57;5.00;;;12.10;70.60;;;;;;5049342;28;20472;-57
2023/10/09 13:57:50;;;;;;;4.77;4.07;;;12.00;77.40;;;;;;5048825;28;20892;-57
2023/10/09 14:00:32;;;;;;;6.17;4.27;;;12.00;71.60;;;;;;5051008;28;20466;-58
2023/10/09 14:03:01;;;;;;;5.53;5.00;;;12.00;70.00;;;;;;5047655;28;20978;-57
2023/10/09 14:05:28;;;;;;;5.77;5.20;;;12.10;63.60;;;;;;5049802;28;20887;-57
2023/10/09 14:08:00;;;;;;;5.60;4.90;;;12.00;79.30;;;;;;5052319;28;20462;-58
2023/10/09 14:10:30;;;;;;;14.73;5.87;;;12.00;70.30;;;;;;5040689;28;20461;-58
2023/10/09 14:12:56;;;;;;;7.07;4.83;;;12.00;71.20;;;;;;5035518;28;21045;-58
2023/10/09 14:15:23;;;;;;;8.63;6.40;;;12.00;73.80;;;;;;5040310;28;20481;-58
2023/10/09 14:17:55;;;;;;;8.93;6.17;;;12.00;72.80;;;;;;5059695;22;20489;-55
2023/10/09 14:20:31;;;;;;;6.47;5.27;;;12.00;73.60;;;;;;5043237;28;20453;-55
2023/10/09 14:23:06;;;;;;;5.63;5.13;;;12.00;73.40;;;;;;5045987;28;20462;-56
2023/10/09 14:25:33;;;;;;;6.57;6.03;;;12.10;67.10;;;;;;5041355;28;20456;-55